Time;durP1;ratioP1;P1;durP2;ratioP2;P2;SDS_P1;SDS_P2;PMS_P1;PMS_P2;Temp;Humidity;BMP_temperature;BMP_pressure;BME280_temperature;BME280_humidity;BME280_pressure;Samples;Min_cycle;Max_cycle;Signal;HPM_P1;HPM_P2
2021/09/22 00:00:49;;;;;;;;;41.50;35.50;;;;;17.73;54.88;102492.56;6279605;22;45130;-66
2021/09/22 00:03:14;;;;;;;;;38.75;34.00;;;;;17.76;55.70;102502.38;6251504;22;46025;-66
2021/09/22 00:05:40;;;;;;;;;42.25;33.75;;;;;17.89;55.92;102508.25;6279202;22;45170;-66
2021/09/22 00:08:06;;;;;;;;;37.25;34.75;;;;;17.81;55.37;102502.19;6276858;22;45402;-66
2021/09/22 00:10:31;;;;;;;;;34.50;32.50;;;;;17.83;55.40;102501.22;6278905;22;45359;-66
2021/09/22 00:12:57;;;;;;;;;39.75;32.50;;;;;17.85;55.68;102501.19;6251034;22;48325;-67
2021/09/22 00:15:24;;;;;;;;;30.75;30.00;;;;;17.85;55.74;102506.59;6251420;22;45355;-67
2021/09/22 00:17:50;;;;;;;;;30.25;28.50;;;;;17.89;55.48;102510.97;6279075;22;45436;-66
2021/09/22 00:20:17;;;;;;;;;29.75;27.75;;;;;17.81;55.48;102496.81;6251537;22;45422;-67
2021/09/22 00:22:43;;;;;;;;;28.50;25.50;;;;;17.85;55.96;102502.06;6279162;22;45389;-66
2021/09/22 00:25:10;;;;;;;;;38.00;29.75;;;;;17.91;55.99;102515.38;6276828;22;45787;-66
2021/09/22 00:27:37;;;;;;;;;32.00;27.75;;;;;17.81;55.71;102495.00;6277636;22;45312;-66
2021/09/22 00:30:03;;;;;;;;;31.00;30.75;;;;;17.71;56.01;102482.75;6276576;22;45296;-66
2021/09/22 00:32:29;;;;;;;;;25.25;24.75;;;;;17.84;55.89;102503.00;6251234;22;48275;-66
2021/09/22 00:34:54;;;;;;;;;29.50;27.75;;;;;17.73;55.96;102484.47;6276327;22;45391;-66
2021/09/22 00:37:20;;;;;;;;;24.25;22.50;;;;;17.77;55.87;102488.84;6279197;22;45343;-66
2021/09/22 00:39:46;;;;;;;;;26.25;25.00;;;;;17.71;56.33;102478.22;6278796;22;45275;-66
2021/09/22 00:42:11;;;;;;;;;30.75;29.25;;;;;17.70;56.14;102473.75;6278907;22;46510;-66
2021/09/22 00:44:58;;;;;;;;;29.50;28.75;;;;;17.88;55.91;102501.97;6279105;22;45267;-66
2021/09/22 00:47:27;;;;;;;;;29.50;28.75;;;;;17.68;56.30;102467.53;6279141;22;45145;-66
2021/09/22 00:49:53;;;;;;;;;26.75;21.75;;;;;17.87;56.08;102496.63;6278211;22;45323;-66
2021/09/22 00:52:20;;;;;;;;;33.00;29.75;;;;;17.71;56.40;102469.25;6278713;22;46256;-66
2021/09/22 00:54:46;;;;;;;;;36.00;32.50;;;;;17.78;56.32;102481.59;6277015;22;45271;-66
2021/09/22 00:57:14;;;;;;;;;32.25;28.50;;;;;17.62;56.02;102454.22;6277095;22;45177;-66
2021/09/22 00:59:40;;;;;;;;;31.50;31.00;;;;;17.76;56.42;102487.06;6251725;22;45102;-66
2021/09/22 01:02:06;;;;;;;;;31.50;26.75;;;;;17.83;56.17;102497.66;6277093;22;48151;-66
2021/09/22 01:04:32;;;;;;;;;30.75;28.50;;;;;17.82;55.97;102491.34;6278971;22;45912;-66
2021/09/22 01:06:58;;;;;;;;;31.00;29.25;;;;;17.71;56.17;102472.81;6278993;22;45244;-66
2021/09/22 01:09:24;;;;;;;;;28.25;26.75;;;;;17.58;56.53;102452.59;6278336;22;45399;-66
2021/09/22 01:11:50;;;;;;;;;31.50;28.00;;;;;17.59;56.77;102451.63;6251047;22;46835;-66
2021/09/22 01:14:15;;;;;;;;;33.25;31.75;;;;;17.68;56.58;102472.06;6251154;22;45287;-66
2021/09/22 01:16:44;;;;;;;;;26.75;26.75;;;;;17.76;56.68;102489.75;6251023;22;45261;-66
2021/09/22 01:19:10;;;;;;;;;31.25;29.75;;;;;17.65;56.23;102458.66;6276969;22;45328;-66
2021/09/22 01:21:36;;;;;;;;;33.25;31.00;;;;;17.36;56.53;102423.63;6278887;22;45377;-66
2021/09/22 01:24:02;;;;;;;;;27.50;26.25;;;;;17.68;56.66;102472.94;6251643;22;45355;-66
2021/09/22 01:26:31;;;;;;;;;32.00;29.50;;;;;17.56;56.68;102449.94;6276891;22;45279;-66
2021/09/22 01:28:57;;;;;;;;;31.75;30.25;;;;;17.68;56.74;102472.06;6277968;22;45439;-67
2021/09/22 01:31:22;;;;;;;;;31.25;27.25;;;;;17.51;56.69;102445.66;6278677;22;45198;-66
2021/09/22 01:33:47;;;;;;;;;26.00;24.75;;;;;17.54;56.50;102453.63;6278640;22;45107;-66
2021/09/22 01:36:14;;;;;;;;;26.00;24.75;;;;;17.48;56.39;102440.34;6276692;22;45358;-66
2021/09/22 01:38:39;;;;;;;;;32.25;30.50;;;;;17.44;56.82;102430.56;6278525;22;45200;-66
2021/09/22 01:41:07;;;;;;;;;30.50;25.25;;;;;17.63;56.52;102464.09;6278440;22;45126;-67
2021/09/22 01:43:37;;;;;;;;;30.25;28.00;;;;;17.62;56.87;102467.72;6278644;22;45307;-66
2021/09/22 01:46:04;;;;;;;;;20.50;17.75;;;;;17.40;56.98;102432.50;6250965;22;45417;-66
2021/09/22 01:48:30;;;;;;;;;28.25;27.25;;;;;17.63;56.96;102460.53;6278679;22;45090;-66
2021/09/22 01:50:57;;;;;;;;;35.75;30.50;;;;;17.57;56.85;102451.72;6276475;22;47870;-67
2021/09/22 01:53:22;;;;;;;;;31.75;29.25;;;;;17.55;56.62;102455.38;6278740;22;45415;-66
2021/09/22 01:55:48;;;;;;;;;31.50;29.50;;;;;17.35;56.77;102429.06;6278663;22;45256;-66
2021/09/22 01:58:14;;;;;;;;;31.00;28.50;;;;;17.53;56.77;102462.66;6276286;22;45327;-66
2021/09/22 02:00:40;;;;;;;;;34.50;31.25;;;;;17.35;56.51;102439.88;6278672;22;45521;-67
2021/09/22 02:03:05;;;;;;;;;33.50;28.50;;;;;17.32;57.15;102431.88;6278675;22;45239;-66
2021/09/22 02:05:31;;;;;;;;;31.00;29.25;;;;;17.31;56.67;102435.53;6279012;22;45081;-66
2021/09/22 02:07:56;;;;;;;;;28.25;27.75;;;;;17.34;56.62;102452.50;6278793;22;45216;-66
2021/09/22 02:10:22;;;;;;;;;33.75;31.75;;;;;17.48;56.99;102459.25;6278134;22;46044;-66
2021/09/22 02:12:48;;;;;;;;;34.00;31.75;;;;;17.32;56.74;102442.66;6278674;22;45220;-66
2021/09/22 02:15:13;;;;;;;;;32.50;29.25;;;;;17.38;56.99;102448.75;6250332;22;45371;-66
2021/09/22 02:17:39;;;;;;;;;31.50;29.25;;;;;17.32;56.77;102431.88;6250893;22;45605;-66
2021/09/22 02:20:07;;;;;;;;;40.00;31.50;;;;;17.41;57.06;102448.66;6278400;22;45098;-67
2021/09/22 02:22:33;;;;;;;;;34.75;32.00;;;;;17.19;56.99;102416.09;6276720;22;45269;-66
2021/09/22 02:24:58;;;;;;;;;33.75;31.25;;;;;17.26;56.70;102421.28;6278572;22;45332;-66
2021/09/22 02:27:23;;;;;;;;;36.75;32.50;;;;;17.29;57.16;102407.69;6250950;22;45559;-66
2021/09/22 02:29:49;;;;;;;;;31.75;29.50;;;;;17.23;56.60;102400.69;6277987;22;45315;-66
2021/09/22 02:32:15;;;;;;;;;34.25;31.50;;;;;17.35;56.86;102411.06;6250509;22;45376;-66
2021/09/22 02:34:41;;;;;;;;;35.50;31.00;;;;;17.29;57.24;102399.59;6278286;22;45497;-66
2021/09/22 02:37:06;;;;;;;;;33.75;30.00;;;;;17.23;56.80;102389.91;6276705;22;45793;-66
2021/09/22 02:39:32;;;;;;;;;40.25;35.00;;;;;17.29;56.71;102388.78;6277860;22;45275;-67
2021/09/22 02:41:58;;;;;;;;;33.25;31.50;;;;;17.06;56.71;102365.28;6278241;22;45269;-67
2021/09/22 02:44:23;;;;;;;;;29.25;28.50;;;;;17.29;56.78;102403.19;6278297;22;45082;-66
2021/09/22 02:46:50;;;;;;;;;34.00;32.25;;;;;17.08;57.06;102358.06;6276599;22;45192;-67
2021/09/22 02:49:16;;;;;;;;;35.75;32.00;;;;;17.06;56.96;102363.50;6250212;22;47340;-66
2021/09/22 02:51:41;;;;;;;;;35.25;32.25;;;;;17.29;56.60;102395.09;6250828;22;45351;-67
2021/09/22 02:54:07;;;;;;;;;38.50;33.50;;;;;17.15;56.53;102373.09;6278476;22;45240;-66
2021/09/22 02:56:32;;;;;;;;;33.25;29.50;;;;;17.15;56.66;102378.47;6277731;22;45230;-66
2021/09/22 02:58:58;;;;;;;;;33.25;30.00;;;;;16.89;57.06;102341.59;6277501;22;45341;-66
2021/09/22 03:01:23;;;;;;;;;38.00;32.25;;;;;17.18;57.05;102386.47;6278414;22;45252;-66
2021/09/22 03:03:48;;;;;;;;;36.75;32.75;;;;;17.05;56.81;102364.41;6278488;22;45323;-66
2021/09/22 03:06:14;;;;;;;;;37.00;33.00;;;;;17.09;57.23;102359.78;6278271;22;45310;-67
2021/09/22 03:08:39;;;;;;;;;33.25;32.00;;;;;17.19;56.67;102377.44;6278033;22;45397;-66
2021/09/22 03:11:08;;;;;;;;;33.00;30.50;;;;;17.07;56.91;102365.25;6277819;22;45303;-67
2021/09/22 03:13:35;;;;;;;;;32.00;29.50;;;;;17.15;56.37;102392.84;6278023;22;45236;-66
2021/09/22 03:16:01;;;;;;;;;30.75;30.00;;;;;16.94;56.52;102361.19;6250648;22;45341;-66
2021/09/22 03:18:26;;;;;;;;;36.75;32.50;;;;;17.07;56.61;102385.94;6277899;22;45898;-67
2021/09/22 03:20:52;;;;;;;;;37.00;32.00;;;;;16.91;57.17;102355.94;6278509;22;45350;-66
2021/09/22 03:23:18;;;;;;;;;33.75;31.25;;;;;16.91;56.80;102355.94;6276523;22;45410;-67
2021/09/22 03:25:43;;;;;;;;;40.75;32.75;;;;;17.07;56.89;102384.13;6278108;22;45338;-66
2021/09/22 03:28:09;;;;;;;;;37.75;32.00;;;;;17.04;57.18;102374.34;6277845;22;46055;-66
2021/09/22 03:30:34;;;;;;;;;37.75;32.50;;;;;16.98;56.85;102354.78;6277723;22;45292;-66
2021/09/22 03:33:00;;;;;;;;;35.50;32.25;;;;;17.08;57.05;102382.34;6275668;22;45375;-66
2021/09/22 03:35:25;;;;;;;;;32.75;30.50;;;;;17.00;57.17;102369.09;6277957;22;45469;-66
2021/09/22 03:37:51;;;;;;;;;34.50;31.75;;;;;16.93;56.96;102362.13;6277643;22;45168;-66
2021/09/22 03:40:17;;;;;;;;;32.50;28.75;;;;;16.99;57.13;102379.00;6277692;22;45168;-67
2021/09/22 03:42:42;;;;;;;;;31.00;29.75;;;;;17.00;57.26;102379.88;6277905;22;45561;-66
2021/09/22 03:45:08;;;;;;;;;41.75;32.50;;;;;17.02;57.23;102378.91;6277962;22;45162;-66
2021/09/22 03:47:33;;;;;;;;;35.25;32.00;;;;;17.00;57.00;102380.75;6249958;22;47024;-66
2021/09/22 03:49:59;;;;;;;;;36.75;32.50;;;;;17.04;56.89;102389.66;6275784;22;45741;-66
2021/09/22 03:52:24;;;;;;;;;34.00;29.25;;;;;16.99;57.05;102372.69;6277621;22;45421;-66
2021/09/22 03:54:50;;;;;;;;;34.50;32.00;;;;;17.04;57.17;102395.91;6277660;22;45235;-66
2021/09/22 03:57:15;;;;;;;;;31.75;30.25;;;;;17.00;56.86;102393.38;6275734;22;46955;-67
2021/09/22 03:59:41;;;;;;;;;36.00;31.50;;;;;16.96;57.21;102381.78;6275558;22;45694;-66
2021/09/22 04:02:06;;;;;;;;;34.75;30.50;;;;;16.96;57.00;102387.19;6250278;22;45271;-66
2021/09/22 05:16:46;;;;;;;;;32.50;30.50;;;;;15.22;61.66;102394.00;5118041;27;46089;-67
2021/09/22 05:19:11;;;;;;;;;44.00;35.00;;;;;15.48;61.33;102409.47;5088878;27;45411;-67
2021/09/22 05:21:37;;;;;;;;;36.00;33.25;;;;;15.53;60.96;102403.03;5095666;27;45623;-67
2021/09/22 05:24:02;;;;;;;;;34.25;30.50;;;;;15.46;60.85;102368.28;5080326;27;45263;-67
2021/09/22 05:26:28;;;;;;;;;39.25;31.75;;;;;15.79;60.61;102414.09;5088206;27;45766;-67
2021/09/22 05:28:53;;;;;;;;;36.00;32.00;;;;;15.86;60.56;102413.84;5109395;27;45266;-67
2021/09/22 05:31:18;;;;;;;;;32.00;30.00;;;;;15.82;60.33;102390.63;5080857;27;45767;-67
2021/09/22 05:33:44;;;;;;;;;36.50;32.25;;;;;15.96;60.10;102408.22;5096911;27;45190;-67
2021/09/22 05:36:09;;;;;;;;;39.75;35.00;;;;;16.06;59.96;102415.09;5082814;27;45350;-67
2021/09/22 05:38:35;;;;;;;;;33.50;32.00;;;;;15.91;59.77;102384.09;5108524;27;45844;-65
2021/09/22 05:41:00;;;;;;;;;37.75;33.25;;;;;15.92;59.73;102373.28;5090628;27;45331;-65
2021/09/22 05:43:26;;;;;;;;;32.00;30.75;;;;;16.20;59.39;102415.56;5095207;27;45447;-65
2021/09/22 05:45:51;;;;;;;;;34.00;31.25;;;;;16.07;59.53;102387.22;5095215;27;45476;-65
2021/09/22 05:48:16;;;;;;;;;30.50;28.25;;;;;16.19;59.33;102400.34;5096668;27;45502;-65
2021/09/22 05:50:42;;;;;;;;;40.00;34.25;;;;;16.24;59.37;102413.69;5093396;27;45446;-65
2021/09/22 05:53:07;;;;;;;;;37.25;30.50;;;;;16.18;59.18;102403.09;5088585;27;45456;-65
2021/09/22 05:55:33;;;;;;;;;38.00;31.00;;;;;16.26;59.11;102415.41;5093614;27;47547;-64
2021/09/22 05:57:58;;;;;;;;;35.00;30.75;;;;;16.36;59.47;102425.91;5110469;27;45349;-65
2021/09/22 06:00:24;;;;;;;;;35.00;32.00;;;;;16.17;58.78;102388.75;5094133;27;45916;-70
2021/09/22 06:02:49;;;;;;;;;40.75;34.25;;;;;16.20;58.92;102390.44;5075977;27;45499;-68
2021/09/22 06:05:14;;;;;;;;;31.25;30.25;;;;;16.33;58.98;102421.47;5086046;27;45514;-68
2021/09/22 06:07:40;;;;;;;;;36.25;31.75;;;;;16.21;58.76;102401.19;5089909;27;45582;-67
2021/09/22 06:10:06;;;;;;;;;35.50;32.00;;;;;16.05;59.24;102381.88;5098041;27;45566;-67
2021/09/22 06:12:31;;;;;;;;;34.50;31.75;;;;;16.37;59.05;102419.56;5078187;27;45415;-67
2021/09/22 06:14:56;;;;;;;;;33.25;31.75;;;;;16.16;59.20;102386.97;5095826;27;46530;-67
2021/09/22 06:17:22;;;;;;;;;36.00;31.00;;;;;16.38;58.82;102424.03;5080681;27;45357;-65
2021/09/22 06:19:48;;;;;;;;;36.25;32.75;;;;;16.41;58.87;102437.44;5067995;28;45449;-65
2021/09/22 06:22:13;;;;;;;;;38.75;33.00;;;;;16.33;58.84;102407.13;5071083;28;45305;-66
2021/09/22 06:24:39;;;;;;;;;34.00;32.00;;;;;16.26;58.58;102401.03;5068338;27;45416;-65
2021/09/22 06:27:05;;;;;;;;;37.00;32.25;;;;;16.27;58.93;102400.09;5075477;27;45174;-65
2021/09/22 06:29:30;;;;;;;;;42.50;35.50;;;;;16.12;58.74;102371.81;5091688;27;45909;-70
2021/09/22 06:31:55;;;;;;;;;36.00;31.00;;;;;16.22;58.88;102389.47;5069406;28;45370;-69
2021/09/22 06:34:21;;;;;;;;;35.00;30.00;;;;;16.34;58.63;102407.09;5075427;28;46265;-70
2021/09/22 06:36:47;;;;;;;;;37.25;32.25;;;;;16.54;58.60;102440.63;5076700;27;45373;-70
2021/09/22 06:39:12;;;;;;;;;34.50;31.75;;;;;16.53;58.72;102445.13;5078874;27;45459;-66
2021/09/22 06:41:39;;;;;;;;;35.75;32.75;;;;;16.25;58.75;102392.06;5069217;28;45429;-67
2021/09/22 06:44:04;;;;;;;;;33.75;30.25;;;;;16.30;58.30;102405.41;5067289;28;46278;-67
2021/09/22 06:46:31;;;;;;;;;35.00;32.75;;;;;16.31;58.75;102409.88;5075011;27;45425;-67
2021/09/22 06:48:57;;;;;;;;;32.50;30.00;;;;;16.46;58.07;102440.88;5073850;28;45250;-67
2021/09/22 06:51:22;;;;;;;;;29.50;27.75;;;;;16.38;57.25;102443.78;5074459;27;45213;-68
2021/09/22 06:53:48;;;;;;;;;29.75;28.25;;;;;16.33;57.40;102445.75;5074624;28;45759;-68
2021/09/22 06:56:14;;;;;;;;;31.75;28.50;;;;;16.04;57.82;102400.81;5069457;28;45291;-67
2021/09/22 06:58:39;;;;;;;;;32.00;30.25;;;;;16.14;57.52;102417.56;5068784;27;45297;-68
2021/09/22 07:01:05;;;;;;;;;30.50;27.75;;;;;16.30;57.92;102446.72;5074459;28;45511;-68
2021/09/22 07:03:30;;;;;;;;;27.75;27.25;;;;;16.16;57.90;102421.13;5075447;28;46484;-64
2021/09/22 07:05:56;;;;;;;;;26.00;24.25;;;;;16.24;57.62;102435.25;5081606;27;45940;-66
2021/09/22 07:08:21;;;;;;;;;26.50;26.50;;;;;16.07;58.07;102392.59;5061766;28;45365;-65
2021/09/22 07:10:47;;;;;;;;;28.00;27.75;;;;;16.13;57.52;102416.69;5074049;27;45532;-65
2021/09/22 07:13:12;;;;;;;;;30.75;29.00;;;;;16.27;57.88;102437.81;5090749;27;47558;-66
2021/09/22 07:15:39;;;;;;;;;29.50;27.25;;;;;16.19;57.71;102421.91;5068725;27;45437;-65
2021/09/22 07:18:04;;;;;;;;;32.50;28.75;;;;;16.28;58.25;102432.38;5068069;28;45615;-66
2021/09/22 07:20:30;;;;;;;;;30.50;28.00;;;;;16.14;57.35;102414.84;5076679;27;45601;-65
2021/09/22 07:22:56;;;;;;;;;34.00;30.00;;;;;16.11;56.82;102429.31;5068724;28;45529;-66
2021/09/22 07:25:21;;;;;;;;;31.75;29.75;;;;;16.06;57.02;102436.66;5066227;27;45400;-65
2021/09/22 07:27:47;;;;;;;;;33.50;30.00;;;;;16.21;57.01;102468.53;5075543;27;45456;-65
2021/09/22 07:30:14;;;;;;;;;33.00;30.00;;;;;16.21;57.14;102482.00;5077257;28;45485;-65
2021/09/22 07:32:42;;;;;;;;;30.75;28.00;;;;;16.11;57.16;102465.22;5069269;28;45511;-65
2021/09/22 07:35:07;;;;;;;;;26.50;26.00;;;;;16.02;57.60;102441.25;5065130;27;45412;-65
2021/09/22 07:37:33;;;;;;;;;36.00;32.50;;;;;16.25;57.92;102474.72;5061619;28;45381;-65
2021/09/22 07:39:58;;;;;;;;;31.00;28.25;;;;;16.20;57.05;102471.28;5060155;28;45411;-65
2021/09/22 07:42:24;;;;;;;;;30.50;29.25;;;;;16.03;57.57;102434.91;5060927;28;46179;-65
2021/09/22 07:44:53;;;;;;;;;30.00;29.25;;;;;16.09;57.33;102447.34;5074281;28;45536;-65
2021/09/22 07:47:20;;;;;;;;;29.00;26.25;;;;;16.15;57.19;102457.06;5068471;27;45287;-65
2021/09/22 07:49:45;;;;;;;;;29.25;27.50;;;;;16.11;57.45;102451.75;5068221;28;45557;-65
2021/09/22 07:52:12;;;;;;;;;30.25;28.25;;;;;16.15;57.65;102452.53;5061852;28;45590;-65
2021/09/22 07:54:38;;;;;;;;;37.25;32.75;;;;;16.35;57.32;102486.13;5076980;28;45759;-65
2021/09/22 07:57:03;;;;;;;;;39.25;32.75;;;;;16.29;57.26;102479.09;5081693;27;45543;-65
2021/09/22 07:59:29;;;;;;;;;29.00;27.25;;;;;16.23;57.16;102463.09;5078867;27;45444;-66
2021/09/22 08:01:56;;;;;;;;;32.75;30.00;;;;;16.09;57.52;102441.97;5070813;27;45432;-66
2021/09/22 08:04:22;;;;;;;;;35.00;30.00;;;;;16.36;57.45;102477.13;5089444;27;45845;-66
2021/09/22 08:06:47;;;;;;;;;51.75;42.25;;;;;16.17;57.67;102447.09;5068620;28;45285;-66
2021/09/22 08:09:16;;;;;;;;;43.00;36.50;;;;;16.31;57.29;102466.47;5061982;27;45253;-67
2021/09/22 08:11:42;;;;;;;;;46.00;39.00;;;;;16.29;57.36;102469.19;5060096;28;45619;-66
2021/09/22 08:14:08;;;;;;;;;52.25;43.00;;;;;16.42;57.11;102479.59;5060042;28;45415;-66
2021/09/22 08:16:33;;;;;;;;;67.50;53.25;;;;;16.47;56.96;102478.56;5084068;27;45500;-66
2021/09/22 08:18:59;;;;;;;;;61.75;50.00;;;;;16.26;56.92;102446.84;5079163;28;45590;-66
2021/09/22 08:21:24;;;;;;;;;53.75;42.00;;;;;16.33;56.90;102461.91;5071531;28;45436;-66
2021/09/22 08:23:50;;;;;;;;;60.75;48.75;;;;;16.11;56.93;102418.53;5064532;27;45511;-66
2021/09/22 08:26:17;;;;;;;;;56.25;45.75;;;;;16.47;57.06;102474.97;5076773;27;45386;-66
2021/09/22 08:28:43;;;;;;;;;45.50;38.75;;;;;16.53;57.14;102477.50;5076334;27;45295;-67
2021/09/22 08:31:13;;;;;;;;;52.00;43.00;;;;;16.53;57.01;102471.22;5058660;28;48047;-66
2021/09/22 08:33:39;;;;;;;;;57.25;45.50;;;;;16.52;57.36;102470.31;5059829;28;45399;-67
2021/09/22 08:36:08;;;;;;;;;54.00;44.25;;;;;16.46;56.99;102462.44;5060089;28;45413;-64
2021/09/22 08:38:33;;;;;;;;;55.50;45.25;;;;;16.64;57.06;102482.56;5074822;28;45156;-64
2021/09/22 08:40:58;;;;;;;;;59.25;47.00;;;;;16.40;57.08;102446.44;5069388;27;45325;-69
2021/09/22 08:43:32;;;;;;;;;57.25;47.25;;;;;16.51;56.86;102456.91;5063159;28;45373;-65
2021/09/22 08:45:58;;;;;;;;;62.75;51.00;;;;;16.52;56.64;102472.13;5068655;27;45241;-65
2021/09/22 08:48:26;;;;;;;;;64.00;50.50;;;;;16.61;56.66;102488.94;5075882;28;45169;-64
2021/09/22 08:51:15;;;;;;;;;;;;;;;;;;;;;
2021/09/22 08:54:18;;;;;;;;;;;;;;;;;;;;;
2021/09/22 08:57:00;;;;;;;;;;;;;;;;;;;;;
2021/09/22 08:59:55;;;;;;;;;;;;;;;;;;;;;
2021/09/22 09:02:25;;;;;;;;;61.75;48.00;;;;;16.49;57.59;102462.34;5074063;27;75288;-65
2021/09/22 09:05:07;;;;;;;;;65.75;50.50;;;;;16.51;56.67;102463.19;5017158;27;46287;-65
2021/09/22 09:07:45;;;;;;;;;60.50;47.50;;;;;16.66;56.94;102488.81;4984290;28;45559;-69
2021/09/22 09:11:08;;;;;;;;;;;;;;;;;;;;;
2021/09/22 09:14:28;;;;;;;;;63.50;50.25;;;;;16.73;56.41;102493.06;4986149;28;47186;-69
2021/09/22 09:20:32;;;;;;;;;63.50;50.00;;;;;16.59;56.70;102447.66;4980677;28;45522;-67
2021/09/22 09:23:19;;;;;;;;;;;;;;;;;;;;;
2021/09/22 09:26:06;;;;;;;;;48.25;39.50;;;;;16.88;55.63;102475.56;4981324;28;75357;-65
2021/09/22 09:28:38;;;;;;;;;43.50;36.00;;;;;16.69;55.97;102448.25;4992358;28;45690;-65
2021/09/22 09:31:10;;;;;;;;;42.25;33.50;;;;;16.77;56.44;102448.00;4987639;28;45982;-65
2021/09/22 09:33:56;;;;;;;;;34.25;30.25;;;;;16.95;56.17;102466.34;4981015;28;45362;-65
2021/09/22 09:36:34;;;;;;;;;30.75;28.50;;;;;17.06;55.98;102470.50;4987319;28;48382;-65
2021/09/22 09:39:12;;;;;;;;;29.50;27.75;;;;;17.16;55.24;102482.78;4978424;28;45579;-65
2021/09/22 09:41:50;;;;;;;;;24.75;24.25;;;;;17.19;55.58;102480.88;4983279;28;45425;-65
2021/09/22 09:44:30;;;;;;;;;28.00;26.50;;;;;17.02;55.15;102435.56;4984486;28;45725;-65
2021/09/22 09:47:09;;;;;;;;;28.00;25.00;;;;;17.23;55.40;102463.63;4986809;28;45394;-65
2021/09/22 09:49:39;;;;;;;;;24.25;23.25;;;;;17.18;55.58;102446.72;4984605;28;45492;-65
2021/09/22 09:52:05;;;;;;;;;27.75;24.25;;;;;17.39;54.13;102465.81;4999950;28;45491;-65
2021/09/22 09:54:33;;;;;;;;;24.75;23.25;;;;;17.48;54.31;102468.22;4999437;28;45537;-65
2021/09/22 09:57:18;;;;;;;;;21.75;21.25;;;;;17.52;54.34;102459.06;4982004;28;46416;-65
2021/09/22 09:59:50;;;;;;;;;23.25;22.75;;;;;17.57;54.81;102457.13;5001603;28;45600;-65
2021/09/22 10:02:26;;;;;;;;;25.50;22.25;;;;;17.64;53.97;102460.50;4999568;28;45477;-65
2021/09/22 10:04:52;;;;;;;;;23.75;19.50;;;;;17.58;53.73;102439.97;4981477;28;45417;-65
2021/09/22 10:07:17;;;;;;;;;24.75;22.00;;;;;17.66;54.21;102453.22;4994723;28;45317;-65
2021/09/22 10:09:43;;;;;;;;;23.75;22.75;;;;;17.75;53.30;102460.09;4991630;28;45694;-65
2021/09/22 10:12:11;;;;;;;;;29.50;28.25;;;;;17.60;53.25;102431.81;4982223;28;45579;-65
2021/09/22 10:14:38;;;;;;;;;24.25;24.25;;;;;17.55;52.94;102423.00;4981339;28;45328;-65
2021/09/22 10:17:04;;;;;;;;;21.75;21.50;;;;;17.86;53.23;102457.91;4987226;28;45551;-65
2021/09/22 10:19:30;;;;;;;;;24.00;21.75;;;;;17.73;52.50;102422.34;4983205;28;45422;-65
2021/09/22 10:21:57;;;;;;;;;21.00;20.75;;;;;17.74;52.11;102416.00;5001788;28;45553;-65
2021/09/22 10:24:25;;;;;;;;;17.50;17.50;;;;;17.87;51.94;102438.06;4985194;28;45864;-65
2021/09/22 10:26:54;;;;;;;;;19.75;17.75;;;;;17.72;51.89;102401.66;4980465;28;47703;-65
2021/09/22 10:29:25;;;;;;;;;20.25;14.75;;;;;17.78;51.92;102396.03;4981575;28;45531;-65
2021/09/22 10:31:51;;;;;;;;;22.25;20.00;;;;;17.89;51.67;102405.59;4981779;28;45326;-65
2021/09/22 10:34:33;;;;;;;;;22.00;18.75;;;;;18.12;51.91;102424.53;4981010;28;45434;-65
2021/09/22 10:37:03;;;;;;;;;21.75;20.25;;;;;18.01;52.02;102382.66;4981046;28;46469;-65
2021/09/22 10:39:34;;;;;;;;;18.50;18.00;;;;;18.24;52.05;102406.09;4981845;28;45382;-65
2021/09/22 10:42:01;;;;;;;;;15.00;14.25;;;;;18.26;51.47;102401.50;4990199;28;45474;-65
2021/09/22 10:44:35;;;;;;;;;22.75;20.00;;;;;18.23;51.34;102383.59;4998394;28;45425;-65
2021/09/22 10:47:32;;;;;;;;;17.00;14.25;;;;;18.41;50.74;102403.66;4996076;28;47170;-73
2021/09/22 10:49:57;;;;;;;;;15.50;15.50;;;;;18.20;50.18;102364.81;5011988;28;45696;-71
2021/09/22 10:52:37;;;;;;;;;19.00;17.25;;;;;18.20;50.08;102367.50;4995731;28;45739;-72
2021/09/22 10:55:24;;;;;;;;;13.75;12.00;;;;;18.20;49.88;102369.34;5002555;28;45685;-70
2021/09/22 10:58:11;;;;;;;;;13.00;12.50;;;;;18.35;49.78;102378.69;4984315;28;47533;-70
2021/09/22 11:01:09;;;;;;;;;15.00;13.75;;;;;18.48;49.33;102388.94;4995999;28;45415;-71
2021/09/22 11:03:50;;;;;;;;;9.25;8.25;;;;;18.59;49.72;102393.91;4990911;28;45540;-65
2021/09/22 11:07:28;;;;;;;;;15.50;13.50;;;;;18.63;48.81;102391.97;4995316;28;45647;-65
2021/09/22 11:09:33;;;;;;;;;12.25;12.25;;;;;18.48;48.92;102353.78;4982546;28;47118;-66
2021/09/22 11:11:59;;;;;;;;;14.00;12.00;;;;;18.67;48.64;102388.19;4981274;28;46017;-65
2021/09/22 11:14:27;;;;;;;;;12.25;12.25;;;;;18.70;48.92;102380.84;4991696;28;45661;-66
2021/09/22 11:17:18;;;;;;;;;13.25;11.00;;;;;18.75;48.58;102377.94;4990308;28;45409;-66
2021/09/22 11:20:14;;;;;;;;;12.75;12.75;;;;;18.57;48.71;102343.53;4979415;28;45901;-68
2021/09/22 11:22:39;;;;;;;;;11.75;11.75;;;;;18.80;48.61;102362.41;4977143;28;45863;-66
2021/09/22 11:25:19;;;;;;;;;12.25;12.00;;;;;18.84;48.42;102366.81;4998458;28;45568;-67
2021/09/22 11:27:45;;;;;;;;;12.50;12.00;;;;;18.70;48.07;102334.84;4984574;28;45799;-67
2021/09/22 11:30:16;;;;;;;;;11.25;9.25;;;;;18.78;48.23;102348.06;4994656;28;46999;-68
2021/09/22 11:42:19;;;;;;;;;13.75;12.00;;;;;18.85;47.33;102319.84;4989033;28;45890;-67
2021/09/22 11:44:50;;;;;;;;;8.75;7.75;;;;;19.15;47.98;102351.97;4990506;28;45799;-65
2021/09/22 11:47:17;;;;;;;;;7.00;7.00;;;;;19.04;47.43;102324.47;4989040;28;45557;-65
2021/09/22 11:50:26;;;;;;;;;4.00;4.00;;;;;19.18;48.27;102334.72;4982065;28;45545;-66
2021/09/22 11:53:11;;;;;;;;;7.50;7.50;;;;;19.34;47.34;102345.75;4991809;28;47367;-67
2021/09/22 11:56:10;;;;;;;;;;;;;;;;;;;;;
2021/09/22 11:59:18;;;;;;;;;10.25;8.50;;;;;19.38;47.05;102321.19;4979433;28;67833;-68
2021/09/22 12:02:14;;;;;;;;;;;;;;;;;;;;;
2021/09/22 12:04:46;;;;;;;;;7.50;7.50;;;;;19.34;46.63;102311.41;4989088;28;76784;-67
2021/09/22 12:07:23;;;;;;;;;;;;;;;;;;;;;
2021/09/22 12:09:49;;;;;;;;;7.25;7.25;;;;;19.24;47.36;102274.88;4995428;28;69773;-68
2021/09/22 12:12:20;;;;;;;;;9.00;8.75;;;;;19.41;47.82;102298.47;5010084;28;45358;-67
2021/09/22 12:14:58;;;;;;;;;8.00;8.00;;;;;19.36;47.16;102285.19;4994599;28;45423;-69
2021/09/22 12:17:43;;;;;;;;;8.00;8.00;;;;;19.42;46.90;102287.59;4995165;28;45307;-68
2021/09/22 12:20:43;;;;;;;;;;;;;;;;;;;;;
2021/09/22 12:23:39;;;;;;;;;9.75;8.00;;;;;19.46;46.84;102272.06;4978109;28;73046;-67
2021/09/22 12:26:35;;;;;;;;;8.00;5.00;;;;;19.69;46.93;102308.06;4978452;28;47394;-67
2021/09/22 12:29:36;;;;;;;;;10.00;9.25;;;;;19.64;46.97;102302.88;4981345;28;45527;-67
2021/09/22 12:32:30;;;;;;;;;8.75;8.25;;;;;19.46;46.35;102272.06;4997850;28;45434;-67
2021/09/22 12:35:00;;;;;;;;;8.50;8.50;;;;;19.50;45.98;102271.00;4978676;28;45755;-67
2021/09/22 12:37:40;;;;;;;;;8.50;8.50;;;;;19.61;46.82;102279.53;4977004;28;48129;-67
2021/09/22 12:40:24;;;;;;;;;8.50;6.50;;;;;19.73;47.27;102290.72;4988750;28;45391;-68
2021/09/22 12:43:01;;;;;;;;;12.50;10.75;;;;;19.67;46.55;102270.22;4997555;28;45688;-68
2021/09/22 12:45:42;;;;;;;;;;;;;;;;;;;;;
2021/09/22 12:48:32;;;;;;;;;6.50;6.50;;;;;19.73;46.08;102256.41;4993254;28;75185;-68
2021/09/22 12:51:08;;;;;;;;;;;;;;;;;;;;;
2021/09/22 12:53:56;;;;;;;;;;;;;;;;;;;;;
2021/09/22 12:56:43;;;;;;;;;;;;;;;;;;;;;
2021/09/22 12:59:43;;;;;;;;;12.50;11.00;;;;;19.87;46.28;102272.03;4994232;28;75246;-68
2021/09/22 13:02:38;;;;;;;;;;;;;;;;;;;;;
2021/09/22 13:05:07;;;;;;;;;8.00;7.50;;;;;19.71;46.61;102217.66;4987859;28;68674;-68
2021/09/22 13:07:35;;;;;;;;;7.00;7.00;;;;;19.76;46.63;102231.00;4989629;28;45476;-68
2021/09/22 13:10:02;;;;;;;;;6.50;6.50;;;;;20.01;46.57;102259.66;4979834;28;45328;-68